sensor_id;sensor_type;location;lat;lon;timestamp;temperature;humidity
9497;DHT22;4786;51.270;4.456;2023-07-08T00:00:42;21.20;99.90
9497;DHT22;4786;51.270;4.456;2023-07-08T00:03:08;21.10;99.90
9497;DHT22;4786;51.270;4.456;2023-07-08T00:05:35;21.10;99.90
9497;DHT22;4786;51.270;4.456;2023-07-08T00:08:01;21.00;99.90
9497;DHT22;4786;51.270;4.456;2023-07-08T00:10:28;21.00;99.90
9497;DHT22;4786;51.270;4.456;2023-07-08T00:12:56;20.90;99.90
9497;DHT22;4786;51.270;4.456;2023-07-08T00:15:26;20.80;99.90
9497;DHT22;4786;51.270;4.456;2023-07-08T00:17:52;20.80;99.90
9497;DHT22;4786;51.270;4.456;2023-07-08T00:22:59;20.70;99.90
9497;DHT22;4786;51.270;4.456;2023-07-08T00:25:29;20.70;99.90
9497;DHT22;4786;51.270;4.456;2023-07-08T00:27:55;20.70;99.90
9497;DHT22;4786;51.270;4.456;2023-07-08T00:30:27;20.60;99.90
9497;DHT22;4786;51.270;4.456;2023-07-08T00:32:54;20.50;99.90
9497;DHT22;4786;51.270;4.456;2023-07-08T00:35:40;20.50;99.90
9497;DHT22;4786;51.270;4.456;2023-07-08T00:38:21;20.40;99.90
9497;DHT22;4786;51.270;4.456;2023-07-08T00:41:14;20.30;99.90
9497;DHT22;4786;51.270;4.456;2023-07-08T00:43:45;20.20;99.90
9497;DHT22;4786;51.270;4.456;2023-07-08T00:51:37;20.10;99.90
9497;DHT22;4786;51.270;4.456;2023-07-08T00:54:04;20.10;99.90
9497;DHT22;4786;51.270;4.456;2023-07-08T00:56:35;20.10;99.90
9497;DHT22;4786;51.270;4.456;2023-07-08T00:59:05;20.00;99.90
9497;DHT22;4786;51.270;4.456;2023-07-08T01:01:36;20.00;99.90
9497;DHT22;4786;51.270;4.456;2023-07-08T01:04:08;20.00;99.90
9497;DHT22;4786;51.270;4.456;2023-07-08T01:06:40;20.00;99.90
9497;DHT22;4786;51.270;4.456;2023-07-08T01:09:08;20.00;99.90
9497;DHT22;4786;51.270;4.456;2023-07-08T01:11:37;20.00;99.90
9497;DHT22;4786;51.270;4.456;2023-07-08T01:14:06;20.00;99.90
9497;DHT22;4786;51.270;4.456;2023-07-08T01:16:33;19.90;99.90
9497;DHT22;4786;51.270;4.456;2023-07-08T01:19:00;19.80;99.90
9497;DHT22;4786;51.270;4.456;2023-07-08T01:21:39;19.80;99.90
9497;DHT22;4786;51.270;4.456;2023-07-08T01:24:09;19.70;99.90
9497;DHT22;4786;51.270;4.456;2023-07-08T01:26:39;19.70;99.90
9497;DHT22;4786;51.270;4.456;2023-07-08T01:29:06;19.60;99.90
9497;DHT22;4786;51.270;4.456;2023-07-08T01:31:33;19.60;99.90
9497;DHT22;4786;51.270;4.456;2023-07-08T01:33:59;19.60;99.90
9497;DHT22;4786;51.270;4.456;2023-07-08T01:36:27;19.60;99.90
9497;DHT22;4786;51.270;4.456;2023-07-08T01:38:55;19.50;99.90
9497;DHT22;4786;51.270;4.456;2023-07-08T01:41:21;19.50;99.90
9497;DHT22;4786;51.270;4.456;2023-07-08T01:43:47;19.40;99.90
9497;DHT22;4786;51.270;4.456;2023-07-08T01:46:24;19.50;99.90
9497;DHT22;4786;51.270;4.456;2023-07-08T01:48:58;19.60;99.90
9497;DHT22;4786;51.270;4.456;2023-07-08T01:51:25;19.50;99.90
9497;DHT22;4786;51.270;4.456;2023-07-08T01:53:52;19.40;99.90
9497;DHT22;4786;51.270;4.456;2023-07-08T01:56:18;19.40;99.90
9497;DHT22;4786;51.270;4.456;2023-07-08T01:58:45;19.30;99.90
9497;DHT22;4786;51.270;4.456;2023-07-08T02:01:11;19.30;99.90
9497;DHT22;4786;51.270;4.456;2023-07-08T02:03:37;19.20;99.90
9497;DHT22;4786;51.270;4.456;2023-07-08T02:06:04;19.20;99.90
9497;DHT22;4786;51.270;4.456;2023-07-08T02:08:31;19.20;99.90
9497;DHT22;4786;51.270;4.456;2023-07-08T02:10:58;19.10;99.90
9497;DHT22;4786;51.270;4.456;2023-07-08T02:13:25;19.20;99.90
9497;DHT22;4786;51.270;4.456;2023-07-08T02:15:51;19.10;99.90
9497;DHT22;4786;51.270;4.456;2023-07-08T02:18:17;19.10;99.90
9497;DHT22;4786;51.270;4.456;2023-07-08T02:20:47;19.00;99.90
9497;DHT22;4786;51.270;4.456;2023-07-08T02:23:13;19.00;99.90
9497;DHT22;4786;51.270;4.456;2023-07-08T02:25:40;19.00;99.90
9497;DHT22;4786;51.270;4.456;2023-07-08T02:28:05;19.00;99.90
9497;DHT22;4786;51.270;4.456;2023-07-08T02:30:31;19.00;99.90
9497;DHT22;4786;51.270;4.456;2023-07-08T02:32:57;18.90;99.90
9497;DHT22;4786;51.270;4.456;2023-07-08T02:35:26;18.90;99.90
9497;DHT22;4786;51.270;4.456;2023-07-08T02:37:53;18.80;99.90
9497;DHT22;4786;51.270;4.456;2023-07-08T02:40:20;18.80;99.90
9497;DHT22;4786;51.270;4.456;2023-07-08T02:42:46;18.80;99.90
9497;DHT22;4786;51.270;4.456;2023-07-08T02:45:13;18.70;99.90
9497;DHT22;4786;51.270;4.456;2023-07-08T02:47:40;18.60;99.90
9497;DHT22;4786;51.270;4.456;2023-07-08T02:50:08;18.70;99.90
9497;DHT22;4786;51.270;4.456;2023-07-08T02:52:34;18.70;99.90
9497;DHT22;4786;51.270;4.456;2023-07-08T02:55:00;18.70;99.90
9497;DHT22;4786;51.270;4.456;2023-07-08T02:57:25;18.60;99.90
9497;DHT22;4786;51.270;4.456;2023-07-08T02:59:51;18.60;99.90
9497;DHT22;4786;51.270;4.456;2023-07-08T03:02:17;18.50;99.90
9497;DHT22;4786;51.270;4.456;2023-07-08T03:04:43;18.50;99.90
9497;DHT22;4786;51.270;4.456;2023-07-08T03:07:10;18.50;99.90
9497;DHT22;4786;51.270;4.456;2023-07-08T03:09:40;18.50;99.90
9497;DHT22;4786;51.270;4.456;2023-07-08T03:12:08;18.50;99.90
9497;DHT22;4786;51.270;4.456;2023-07-08T03:14:33;18.50;99.90
9497;DHT22;4786;51.270;4.456;2023-07-08T03:17:00;18.40;99.90
9497;DHT22;4786;51.270;4.456;2023-07-08T03:19:25;18.40;99.90
9497;DHT22;4786;51.270;4.456;2023-07-08T03:21:52;18.30;99.90
9497;DHT22;4786;51.270;4.456;2023-07-08T03:24:18;18.30;99.90
9497;DHT22;4786;51.270;4.456;2023-07-08T03:26:44;18.30;99.90
9497;DHT22;4786;51.270;4.456;2023-07-08T03:29:16;18.40;99.90
9497;DHT22;4786;51.270;4.456;2023-07-08T03:31:43;18.30;99.90
9497;DHT22;4786;51.270;4.456;2023-07-08T03:34:13;18.30;99.90
9497;DHT22;4786;51.270;4.456;2023-07-08T03:36:46;18.30;99.90
9497;DHT22;4786;51.270;4.456;2023-07-08T03:39:18;18.30;99.90
9497;DHT22;4786;51.270;4.456;2023-07-08T03:41:45;18.20;99.90
9497;DHT22;4786;51.270;4.456;2023-07-08T03:44:12;18.20;99.90
9497;DHT22;4786;51.270;4.456;2023-07-08T03:46:38;18.20;99.90
9497;DHT22;4786;51.270;4.456;2023-07-08T03:49:05;18.20;99.90
9497;DHT22;4786;51.270;4.456;2023-07-08T03:51:33;18.30;99.90
9497;DHT22;4786;51.270;4.456;2023-07-08T03:54:00;18.30;99.90
9497;DHT22;4786;51.270;4.456;2023-07-08T03:56:26;18.20;99.90
9497;DHT22;4786;51.270;4.456;2023-07-08T03:58:53;18.20;99.90
9497;DHT22;4786;51.270;4.456;2023-07-08T04:01:21;18.10;99.90
9497;DHT22;4786;51.270;4.456;2023-07-08T04:03:51;18.20;99.90
9497;DHT22;4786;51.270;4.456;2023-07-08T04:06:17;18.10;99.90
9497;DHT22;4786;51.270;4.456;2023-07-08T04:08:42;18.10;99.90
9497;DHT22;4786;51.270;4.456;2023-07-08T04:11:11;18.10;99.90
9497;DHT22;4786;51.270;4.456;2023-07-08T04:13:38;18.10;99.90
9497;DHT22;4786;51.270;4.456;2023-07-08T04:16:05;18.10;99.90
9497;DHT22;4786;51.270;4.456;2023-07-08T04:18:31;18.10;99.90
9497;DHT22;4786;51.270;4.456;2023-07-08T04:20:57;18.10;99.90
9497;DHT22;4786;51.270;4.456;2023-07-08T04:23:25;18.20;99.90
9497;DHT22;4786;51.270;4.456;2023-07-08T04:25:53;18.10;99.90
9497;DHT22;4786;51.270;4.456;2023-07-08T04:28:20;18.20;99.90
9497;DHT22;4786;51.270;4.456;2023-07-08T04:30:47;18.30;99.90
9497;DHT22;4786;51.270;4.456;2023-07-08T04:33:14;18.30;99.90
9497;DHT22;4786;51.270;4.456;2023-07-08T04:35:42;18.30;99.90
9497;DHT22;4786;51.270;4.456;2023-07-08T04:38:18;18.30;99.90
9497;DHT22;4786;51.270;4.456;2023-07-08T04:40:44;18.40;99.90
9497;DHT22;4786;51.270;4.456;2023-07-08T04:43:10;18.40;99.90
9497;DHT22;4786;51.270;4.456;2023-07-08T04:45:38;18.40;99.90
9497;DHT22;4786;51.270;4.456;2023-07-08T04:48:05;18.40;99.90
9497;DHT22;4786;51.270;4.456;2023-07-08T04:50:34;18.50;99.90
9497;DHT22;4786;51.270;4.456;2023-07-08T04:53:01;18.50;99.90
9497;DHT22;4786;51.270;4.456;2023-07-08T04:55:27;18.60;99.90
9497;DHT22;4786;51.270;4.456;2023-07-08T04:57:53;18.70;99.90
9497;DHT22;4786;51.270;4.456;2023-07-08T05:00:19;18.70;99.90
9497;DHT22;4786;51.270;4.456;2023-07-08T05:02:46;18.80;99.90
9497;DHT22;4786;51.270;4.456;2023-07-08T05:05:12;18.90;99.90
9497;DHT22;4786;51.270;4.456;2023-07-08T05:07:37;18.90;99.90
9497;DHT22;4786;51.270;4.456;2023-07-08T05:10:03;18.90;99.90
9497;DHT22;4786;51.270;4.456;2023-07-08T05:12:29;19.00;99.90
9497;DHT22;4786;51.270;4.456;2023-07-08T05:14:55;19.10;99.90
9497;DHT22;4786;51.270;4.456;2023-07-08T05:17:22;19.30;99.90
9497;DHT22;4786;51.270;4.456;2023-07-08T05:19:47;19.70;99.90
9497;DHT22;4786;51.270;4.456;2023-07-08T05:22:16;20.60;99.90
9497;DHT22;4786;51.270;4.456;2023-07-08T05:24:43;21.60;99.90
9497;DHT22;4786;51.270;4.456;2023-07-08T05:27:09;22.90;99.90
9497;DHT22;4786;51.270;4.456;2023-07-08T05:29:35;24.20;99.90
9497;DHT22;4786;51.270;4.456;2023-07-08T05:32:02;25.50;99.90
9497;DHT22;4786;51.270;4.456;2023-07-08T05:34:28;26.70;99.90
9497;DHT22;4786;51.270;4.456;2023-07-08T05:36:54;27.90;99.90
9497;DHT22;4786;51.270;4.456;2023-07-08T05:39:20;28.80;99.90
9497;DHT22;4786;51.270;4.456;2023-07-08T05:41:46;29.60;99.90
9497;DHT22;4786;51.270;4.456;2023-07-08T05:44:12;30.40;99.90
9497;DHT22;4786;51.270;4.456;2023-07-08T05:46:37;30.90;99.40
9497;DHT22;4786;51.270;4.456;2023-07-08T05:49:03;31.60;98.20
9497;DHT22;4786;51.270;4.456;2023-07-08T05:51:30;32.20;96.00
9497;DHT22;4786;51.270;4.456;2023-07-08T05:53:56;32.60;93.20
9497;DHT22;4786;51.270;4.456;2023-07-08T05:56:21;33.20;91.30
9497;DHT22;4786;51.270;4.456;2023-07-08T05:58:48;33.80;90.70
9497;DHT22;4786;51.270;4.456;2023-07-08T06:01:14;34.00;86.30
9497;DHT22;4786;51.270;4.456;2023-07-08T06:03:40;34.40;83.60
9497;DHT22;4786;51.270;4.456;2023-07-08T06:06:06;34.80;80.50
9497;DHT22;4786;51.270;4.456;2023-07-08T06:08:32;35.00;78.80
9497;DHT22;4786;51.270;4.456;2023-07-08T06:10:58;35.50;76.30
9497;DHT22;4786;51.270;4.456;2023-07-08T06:13:24;35.50;74.00
9497;DHT22;4786;51.270;4.456;2023-07-08T06:15:50;35.70;72.60
9497;DHT22;4786;51.270;4.456;2023-07-08T06:18:15;35.70;70.40
9497;DHT22;4786;51.270;4.456;2023-07-08T06:20:41;36.00;72.10
9497;DHT22;4786;51.270;4.456;2023-07-08T06:23:07;36.70;70.40
9497;DHT22;4786;51.270;4.456;2023-07-08T06:25:33;37.00;70.40
9497;DHT22;4786;51.270;4.456;2023-07-08T06:27:59;37.40;69.40
9497;DHT22;4786;51.270;4.456;2023-07-08T06:30:25;37.40;67.60
9497;DHT22;4786;51.270;4.456;2023-07-08T06:32:50;37.70;65.30
9497;DHT22;4786;51.270;4.456;2023-07-08T06:35:16;37.80;64.10
9497;DHT22;4786;51.270;4.456;2023-07-08T06:37:43;37.80;63.20
9497;DHT22;4786;51.270;4.456;2023-07-08T06:40:09;38.10;63.20
9497;DHT22;4786;51.270;4.456;2023-07-08T06:42:35;37.90;63.00
9497;DHT22;4786;51.270;4.456;2023-07-08T06:45:01;37.70;60.70
9497;DHT22;4786;51.270;4.456;2023-07-08T06:47:28;37.60;61.20
9497;DHT22;4786;51.270;4.456;2023-07-08T06:49:54;37.60;61.90
9497;DHT22;4786;51.270;4.456;2023-07-08T06:52:20;37.60;61.40
9497;DHT22;4786;51.270;4.456;2023-07-08T06:54:46;37.70;61.20
9497;DHT22;4786;51.270;4.456;2023-07-08T06:57:12;37.80;61.30
9497;DHT22;4786;51.270;4.456;2023-07-08T06:59:38;38.00;62.40
9497;DHT22;4786;51.270;4.456;2023-07-08T07:02:03;38.10;62.60
9497;DHT22;4786;51.270;4.456;2023-07-08T07:04:30;38.00;60.70
9497;DHT22;4786;51.270;4.456;2023-07-08T07:06:58;37.90;59.20
9497;DHT22;4786;51.270;4.456;2023-07-08T07:09:24;37.60;61.40
9497;DHT22;4786;51.270;4.456;2023-07-08T07:11:50;37.50;62.00
9497;DHT22;4786;51.270;4.456;2023-07-08T07:14:16;37.70;64.30
9497;DHT22;4786;51.270;4.456;2023-07-08T07:16:42;37.60;61.50
9497;DHT22;4786;51.270;4.456;2023-07-08T07:19:08;37.30;63.60
9497;DHT22;4786;51.270;4.456;2023-07-08T07:21:34;37.30;64.00
9497;DHT22;4786;51.270;4.456;2023-07-08T07:23:59;37.20;65.70
9497;DHT22;4786;51.270;4.456;2023-07-08T07:26:26;37.10;65.70
9497;DHT22;4786;51.270;4.456;2023-07-08T07:28:51;36.60;64.00
9497;DHT22;4786;51.270;4.456;2023-07-08T07:31:17;36.20;64.50
9497;DHT22;4786;51.270;4.456;2023-07-08T07:33:43;36.30;64.00
9497;DHT22;4786;51.270;4.456;2023-07-08T07:36:09;35.60;65.30
9497;DHT22;4786;51.270;4.456;2023-07-08T07:38:35;35.30;66.50
9497;DHT22;4786;51.270;4.456;2023-07-08T07:41:01;34.90;65.80
9497;DHT22;4786;51.270;4.456;2023-07-08T07:43:31;34.90;67.40
9497;DHT22;4786;51.270;4.456;2023-07-08T07:45:57;34.60;66.70
9497;DHT22;4786;51.270;4.456;2023-07-08T07:48:23;34.50;68.10
9497;DHT22;4786;51.270;4.456;2023-07-08T07:50:50;34.30;70.10
9497;DHT22;4786;51.270;4.456;2023-07-08T07:53:17;33.90;70.40
9497;DHT22;4786;51.270;4.456;2023-07-08T07:55:43;33.80;70.50
9497;DHT22;4786;51.270;4.456;2023-07-08T07:58:09;33.60;70.40
9497;DHT22;4786;51.270;4.456;2023-07-08T08:00:37;33.50;73.80
9497;DHT22;4786;51.270;4.456;2023-07-08T08:03:04;33.40;75.30
9497;DHT22;4786;51.270;4.456;2023-07-08T08:05:30;33.30;75.50
9497;DHT22;4786;51.270;4.456;2023-07-08T08:07:56;33.30;73.80
9497;DHT22;4786;51.270;4.456;2023-07-08T08:10:22;33.20;73.90
9497;DHT22;4786;51.270;4.456;2023-07-08T08:12:49;33.20;77.80
9497;DHT22;4786;51.270;4.456;2023-07-08T08:15:16;33.20;76.90
9497;DHT22;4786;51.270;4.456;2023-07-08T08:17:43;33.20;75.40
9497;DHT22;4786;51.270;4.456;2023-07-08T08:20:13;33.20;76.20
9497;DHT22;4786;51.270;4.456;2023-07-08T08:22:38;33.10;77.20
9497;DHT22;4786;51.270;4.456;2023-07-08T08:25:04;33.30;76.60
9497;DHT22;4786;51.270;4.456;2023-07-08T08:27:30;33.40;73.40
9497;DHT22;4786;51.270;4.456;2023-07-08T08:29:56;33.30;75.60
9497;DHT22;4786;51.270;4.456;2023-07-08T08:32:22;33.30;74.90
9497;DHT22;4786;51.270;4.456;2023-07-08T08:34:47;33.50;76.50
9497;DHT22;4786;51.270;4.456;2023-07-08T08:37:13;32.90;74.30
9497;DHT22;4786;51.270;4.456;2023-07-08T08:39:39;33.00;76.90
9497;DHT22;4786;51.270;4.456;2023-07-08T08:42:22;33.10;75.50
9497;DHT22;4786;51.270;4.456;2023-07-08T08:44:50;33.00;71.80
9497;DHT22;4786;51.270;4.456;2023-07-08T08:47:40;33.10;76.00
9497;DHT22;4786;51.270;4.456;2023-07-08T08:53:03;33.40;73.90
9497;DHT22;4786;51.270;4.456;2023-07-08T08:55:30;33.50;72.80
9497;DHT22;4786;51.270;4.456;2023-07-08T08:58:19;33.40;73.20
9497;DHT22;4786;51.270;4.456;2023-07-08T09:01:03;33.40;71.50
9497;DHT22;4786;51.270;4.456;2023-07-08T09:03:49;33.30;71.70
9497;DHT22;4786;51.270;4.456;2023-07-08T09:08:44;33.30;76.70
9497;DHT22;4786;51.270;4.456;2023-07-08T09:13:51;33.40;75.30
9497;DHT22;4786;51.270;4.456;2023-07-08T09:16:36;33.50;77.70
9497;DHT22;4786;51.270;4.456;2023-07-08T09:19:18;33.60;78.10
9497;DHT22;4786;51.270;4.456;2023-07-08T09:21:54;33.60;73.30
9497;DHT22;4786;51.270;4.456;2023-07-08T09:27:00;33.70;81.10
9497;DHT22;4786;51.270;4.456;2023-07-08T09:29:27;33.70;78.40
9497;DHT22;4786;51.270;4.456;2023-07-08T09:31:54;33.70;77.40
9497;DHT22;4786;51.270;4.456;2023-07-08T09:34:35;33.90;74.40
9497;DHT22;4786;51.270;4.456;2023-07-08T09:37:03;34.00;77.90
9497;DHT22;4786;51.270;4.456;2023-07-08T09:39:28;34.00;75.80
9497;DHT22;4786;51.270;4.456;2023-07-08T09:41:55;34.10;74.50
9497;DHT22;4786;51.270;4.456;2023-07-08T09:44:27;34.30;74.60
9497;DHT22;4786;51.270;4.456;2023-07-08T09:46:56;34.40;70.70
9497;DHT22;4786;51.270;4.456;2023-07-08T09:49:36;34.50;69.30
9497;DHT22;4786;51.270;4.456;2023-07-08T09:52:02;34.70;72.10
9497;DHT22;4786;51.270;4.456;2023-07-08T09:54:30;34.80;69.80
9497;DHT22;4786;51.270;4.456;2023-07-08T09:56:59;34.80;69.30
9497;DHT22;4786;51.270;4.456;2023-07-08T09:59:33;35.00;68.90
9497;DHT22;4786;51.270;4.456;2023-07-08T10:02:27;34.80;71.70
9497;DHT22;4786;51.270;4.456;2023-07-08T10:04:57;35.00;72.00
9497;DHT22;4786;51.270;4.456;2023-07-08T10:07:23;35.00;69.30
9497;DHT22;4786;51.270;4.456;2023-07-08T10:09:52;35.10;70.80
9497;DHT22;4786;51.270;4.456;2023-07-08T10:12:21;35.20;70.40
9497;DHT22;4786;51.270;4.456;2023-07-08T10:14:52;35.40;72.10
9497;DHT22;4786;51.270;4.456;2023-07-08T10:17:20;35.60;71.50
9497;DHT22;4786;51.270;4.456;2023-07-08T10:19:47;35.60;65.00
9497;DHT22;4786;51.270;4.456;2023-07-08T10:31:15;36.00;66.40
9497;DHT22;4786;51.270;4.456;2023-07-08T10:39:19;36.10;63.10
9497;DHT22;4786;51.270;4.456;2023-07-08T10:44:39;35.80;64.00
9497;DHT22;4786;51.270;4.456;2023-07-08T10:52:57;35.80;64.70
9497;DHT22;4786;51.270;4.456;2023-07-08T10:55:42;35.80;67.70
9497;DHT22;4786;51.270;4.456;2023-07-08T11:03:52;35.70;69.50
9497;DHT22;4786;51.270;4.456;2023-07-08T11:06:33;36.20;67.50
9497;DHT22;4786;51.270;4.456;2023-07-08T11:09:05;36.20;62.30
9497;DHT22;4786;51.270;4.456;2023-07-08T11:11:43;36.30;58.90
9497;DHT22;4786;51.270;4.456;2023-07-08T11:14:41;36.30;63.80
9497;DHT22;4786;51.270;4.456;2023-07-08T11:17:31;36.40;60.80
9497;DHT22;4786;51.270;4.456;2023-07-08T11:20:10;36.50;60.00
9497;DHT22;4786;51.270;4.456;2023-07-08T11:22:48;36.60;62.00
9497;DHT22;4786;51.270;4.456;2023-07-08T11:25:20;36.50;61.70
9497;DHT22;4786;51.270;4.456;2023-07-08T11:27:51;36.40;59.70
9497;DHT22;4786;51.270;4.456;2023-07-08T11:30:21;36.30;58.00
9497;DHT22;4786;51.270;4.456;2023-07-08T11:32:48;36.30;58.00
9497;DHT22;4786;51.270;4.456;2023-07-08T11:35:33;36.30;58.70
9497;DHT22;4786;51.270;4.456;2023-07-08T11:38:01;36.30;63.00
9497;DHT22;4786;51.270;4.456;2023-07-08T11:40:28;36.40;62.10
9497;DHT22;4786;51.270;4.456;2023-07-08T11:43:01;36.30;59.00
9497;DHT22;4786;51.270;4.456;2023-07-08T11:45:34;36.10;55.50
9497;DHT22;4786;51.270;4.456;2023-07-08T11:48:28;35.90;58.40
9497;DHT22;4786;51.270;4.456;2023-07-08T11:50:55;35.90;56.30
9497;DHT22;4786;51.270;4.456;2023-07-08T11:58:26;36.10;56.10
9497;DHT22;4786;51.270;4.456;2023-07-08T12:00:59;35.90;57.00
9497;DHT22;4786;51.270;4.456;2023-07-08T12:03:37;36.10;59.00
9497;DHT22;4786;51.270;4.456;2023-07-08T12:08:53;36.40;59.70
9497;DHT22;4786;51.270;4.456;2023-07-08T12:11:28;36.40;57.10
9497;DHT22;4786;51.270;4.456;2023-07-08T12:13:59;36.40;57.00
9497;DHT22;4786;51.270;4.456;2023-07-08T12:16:27;36.50;58.10
9497;DHT22;4786;51.270;4.456;2023-07-08T12:18:54;36.60;60.70
9497;DHT22;4786;51.270;4.456;2023-07-08T12:21:23;36.70;60.50
9497;DHT22;4786;51.270;4.456;2023-07-08T12:23:51;36.50;59.90
9497;DHT22;4786;51.270;4.456;2023-07-08T12:26:18;36.50;61.60
9497;DHT22;4786;51.270;4.456;2023-07-08T12:28:45;36.60;59.90
9497;DHT22;4786;51.270;4.456;2023-07-08T12:31:18;36.60;60.90
9497;DHT22;4786;51.270;4.456;2023-07-08T12:33:46;36.70;60.20
9497;DHT22;4786;51.270;4.456;2023-07-08T12:36:24;36.80;57.00
9497;DHT22;4786;51.270;4.456;2023-07-08T12:38:52;36.80;57.30
9497;DHT22;4786;51.270;4.456;2023-07-08T12:41:21;36.60;56.40
9497;DHT22;4786;51.270;4.456;2023-07-08T12:43:48;36.40;55.80
9497;DHT22;4786;51.270;4.456;2023-07-08T12:46:16;36.30;59.70
9497;DHT22;4786;51.270;4.456;2023-07-08T12:48:43;36.20;61.10
9497;DHT22;4786;51.270;4.456;2023-07-08T12:51:18;36.30;60.30
9497;DHT22;4786;51.270;4.456;2023-07-08T12:53:47;36.30;60.60
9497;DHT22;4786;51.270;4.456;2023-07-08T12:56:14;36.20;60.40
9497;DHT22;4786;51.270;4.456;2023-07-08T12:58:46;36.20;63.30
9497;DHT22;4786;51.270;4.456;2023-07-08T13:01:23;36.20;60.00
9497;DHT22;4786;51.270;4.456;2023-07-08T13:03:54;36.30;61.20
9497;DHT22;4786;51.270;4.456;2023-07-08T13:06:23;36.30;61.30
9497;DHT22;4786;51.270;4.456;2023-07-08T13:08:51;36.20;60.40
9497;DHT22;4786;51.270;4.456;2023-07-08T13:11:20;36.10;60.10
9497;DHT22;4786;51.270;4.456;2023-07-08T13:13:53;35.80;60.10
9497;DHT22;4786;51.270;4.456;2023-07-08T13:16:21;35.80;59.60
9497;DHT22;4786;51.270;4.456;2023-07-08T13:18:49;35.70;62.80
9497;DHT22;4786;51.270;4.456;2023-07-08T13:21:15;35.40;59.40
9497;DHT22;4786;51.270;4.456;2023-07-08T13:23:42;35.60;61.80
9497;DHT22;4786;51.270;4.456;2023-07-08T13:26:21;35.50;59.70
9497;DHT22;4786;51.270;4.456;2023-07-08T13:28:50;35.30;61.00
9497;DHT22;4786;51.270;4.456;2023-07-08T13:31:24;35.50;63.70
9497;DHT22;4786;51.270;4.456;2023-07-08T13:33:57;35.50;63.30
9497;DHT22;4786;51.270;4.456;2023-07-08T13:36:35;35.70;65.20
9497;DHT22;4786;51.270;4.456;2023-07-08T13:39:26;35.70;60.60
9497;DHT22;4786;51.270;4.456;2023-07-08T13:41:53;35.60;61.30
9497;DHT22;4786;51.270;4.456;2023-07-08T13:44:19;35.90;62.20
9497;DHT22;4786;51.270;4.456;2023-07-08T13:49:27;36.10;63.70
9497;DHT22;4786;51.270;4.456;2023-07-08T13:54:42;36.10;61.70
9497;DHT22;4786;51.270;4.456;2023-07-08T13:57:12;35.80;62.80
9497;DHT22;4786;51.270;4.456;2023-07-08T13:59:38;35.80;62.90
9497;DHT22;4786;51.270;4.456;2023-07-08T14:02:21;35.90;63.60
9497;DHT22;4786;51.270;4.456;2023-07-08T14:04:49;35.80;62.20
9497;DHT22;4786;51.270;4.456;2023-07-08T14:07:18;35.80;63.60
9497;DHT22;4786;51.270;4.456;2023-07-08T14:09:44;35.50;64.80
9497;DHT22;4786;51.270;4.456;2023-07-08T14:12:10;35.30;67.10
9497;DHT22;4786;51.270;4.456;2023-07-08T14:14:36;35.00;67.40
9497;DHT22;4786;51.270;4.456;2023-07-08T14:17:02;34.40;67.80
9497;DHT22;4786;51.270;4.456;2023-07-08T14:19:30;33.90;68.20
9497;DHT22;4786;51.270;4.456;2023-07-08T14:22:00;33.70;70.10
9497;DHT22;4786;51.270;4.456;2023-07-08T14:24:26;33.40;70.60
9497;DHT22;4786;51.270;4.456;2023-07-08T14:26:53;33.10;71.20
9497;DHT22;4786;51.270;4.456;2023-07-08T14:29:19;33.10;72.10
9497;DHT22;4786;51.270;4.456;2023-07-08T14:31:45;32.70;71.30
9497;DHT22;4786;51.270;4.456;2023-07-08T14:34:15;32.50;72.00
9497;DHT22;4786;51.270;4.456;2023-07-08T14:36:41;32.50;74.30
9497;DHT22;4786;51.270;4.456;2023-07-08T14:39:15;32.30;71.60
9497;DHT22;4786;51.270;4.456;2023-07-08T14:41:42;32.10;71.10
9497;DHT22;4786;51.270;4.456;2023-07-08T14:44:32;32.00;71.70
9497;DHT22;4786;51.270;4.456;2023-07-08T14:46:59;31.90;72.50
9497;DHT22;4786;51.270;4.456;2023-07-08T14:49:24;31.90;72.60
9497;DHT22;4786;51.270;4.456;2023-07-08T14:51:51;32.00;74.50
9497;DHT22;4786;51.270;4.456;2023-07-08T14:54:21;32.10;75.30
9497;DHT22;4786;51.270;4.456;2023-07-08T14:56:47;32.20;73.70
9497;DHT22;4786;51.270;4.456;2023-07-08T14:59:19;32.20;72.60
9497;DHT22;4786;51.270;4.456;2023-07-08T15:01:46;32.20;73.00
9497;DHT22;4786;51.270;4.456;2023-07-08T15:04:13;32.40;74.50
9497;DHT22;4786;51.270;4.456;2023-07-08T15:06:41;32.60;73.00
9497;DHT22;4786;51.270;4.456;2023-07-08T15:09:07;32.60;71.60
9497;DHT22;4786;51.270;4.456;2023-07-08T15:11:34;32.80;73.60
9497;DHT22;4786;51.270;4.456;2023-07-08T15:14:02;32.80;72.80
9497;DHT22;4786;51.270;4.456;2023-07-08T15:16:28;32.80;72.50
9497;DHT22;4786;51.270;4.456;2023-07-08T15:18:54;32.80;74.00
9497;DHT22;4786;51.270;4.456;2023-07-08T15:21:21;32.80;73.80
9497;DHT22;4786;51.270;4.456;2023-07-08T15:23:47;32.80;75.80
9497;DHT22;4786;51.270;4.456;2023-07-08T15:26:14;32.80;76.20
9497;DHT22;4786;51.270;4.456;2023-07-08T15:28:46;32.80;81.00
9497;DHT22;4786;51.270;4.456;2023-07-08T15:31:16;32.70;77.70
9497;DHT22;4786;51.270;4.456;2023-07-08T15:33:43;32.80;75.50
9497;DHT22;4786;51.270;4.456;2023-07-08T15:36:13;33.00;77.30
9497;DHT22;4786;51.270;4.456;2023-07-08T15:38:40;33.20;75.60
9497;DHT22;4786;51.270;4.456;2023-07-08T15:41:23;33.30;72.60
9497;DHT22;4786;51.270;4.456;2023-07-08T15:43:53;33.50;74.00
9497;DHT22;4786;51.270;4.456;2023-07-08T15:46:19;33.50;71.80
9497;DHT22;4786;51.270;4.456;2023-07-08T15:48:45;33.60;72.70
9497;DHT22;4786;51.270;4.456;2023-07-08T15:51:14;33.50;72.60
9497;DHT22;4786;51.270;4.456;2023-07-08T15:53:40;33.50;72.20
9497;DHT22;4786;51.270;4.456;2023-07-08T15:56:12;33.40;71.20
9497;DHT22;4786;51.270;4.456;2023-07-08T15:58:40;33.40;73.20
9497;DHT22;4786;51.270;4.456;2023-07-08T16:01:12;33.40;73.50
9497;DHT22;4786;51.270;4.456;2023-07-08T16:03:40;33.40;70.90
9497;DHT22;4786;51.270;4.456;2023-07-08T16:06:08;33.30;70.60
9497;DHT22;4786;51.270;4.456;2023-07-08T16:08:34;33.30;70.50
9497;DHT22;4786;51.270;4.456;2023-07-08T16:11:05;33.40;71.40
9497;DHT22;4786;51.270;4.456;2023-07-08T16:13:37;33.30;70.00
9497;DHT22;4786;51.270;4.456;2023-07-08T16:16:03;33.40;71.10
9497;DHT22;4786;51.270;4.456;2023-07-08T16:18:29;33.20;71.40
9497;DHT22;4786;51.270;4.456;2023-07-08T16:20:55;33.20;73.20
9497;DHT22;4786;51.270;4.456;2023-07-08T16:23:22;33.10;72.30
9497;DHT22;4786;51.270;4.456;2023-07-08T16:25:51;33.10;74.70
9497;DHT22;4786;51.270;4.456;2023-07-08T16:28:39;33.10;75.60
9497;DHT22;4786;51.270;4.456;2023-07-08T16:31:17;33.10;75.60
9497;DHT22;4786;51.270;4.456;2023-07-08T16:33:43;32.90;76.40
9497;DHT22;4786;51.270;4.456;2023-07-08T16:36:18;33.00;76.30
9497;DHT22;4786;51.270;4.456;2023-07-08T16:38:44;33.10;77.60
9497;DHT22;4786;51.270;4.456;2023-07-08T16:41:14;33.00;77.30
9497;DHT22;4786;51.270;4.456;2023-07-08T16:43:41;32.90;77.90
9497;DHT22;4786;51.270;4.456;2023-07-08T16:46:13;32.90;76.90
9497;DHT22;4786;51.270;4.456;2023-07-08T16:48:39;32.90;75.80
9497;DHT22;4786;51.270;4.456;2023-07-08T16:51:14;32.90;76.60
9497;DHT22;4786;51.270;4.456;2023-07-08T16:53:42;32.90;76.10
9497;DHT22;4786;51.270;4.456;2023-07-08T16:56:11;32.90;76.00
9497;DHT22;4786;51.270;4.456;2023-07-08T16:58:36;32.80;76.40
9497;DHT22;4786;51.270;4.456;2023-07-08T17:01:03;32.80;76.20
9497;DHT22;4786;51.270;4.456;2023-07-08T17:03:31;32.60;74.80
9497;DHT22;4786;51.270;4.456;2023-07-08T17:05:59;32.60;75.70
9497;DHT22;4786;51.270;4.456;2023-07-08T17:08:25;32.50;74.70
9497;DHT22;4786;51.270;4.456;2023-07-08T17:10:51;32.40;74.00
9497;DHT22;4786;51.270;4.456;2023-07-08T17:13:17;32.30;75.30